Hauptseite
METAR-TAF:

METAR-TAF

Flughäfen :

Flughafen Phnom Penh

Phnom Penh, Kambodscha

Breite: 11-33N, Länge: 104-51E, Höhe: 10 m

Beobachtung

Neuester Wetterbericht von vor 32 Minuten, um 17:30 UTC
Wind 4 kt aus Süd/Südwest
Temperatur 29°C
Luftfeuchtigkeit 84%
Luftdruck 1006 hPa
Sichtweite: 9000 m
Aufgelockert bewölkt in der Höhe von 1500 ft
Aufgelockert bewölkt in der Höhe von 4000 ft

METAR: VDPP 181730Z 21004KT 9000 SCT015 SCT040 29/26 Q1006

Zeit: 01:02 (18:02 UTC)

Prognose

Neuester Wetterbericht von vor 1 Stunde und 2 Minuten, um 17:00 UTC
Gültige Prognose vom 18 um 18 UTC bis 19 um 12 UTC
Wind 10 kt aus Südwest
Sichtweite 10 km oder mehr
Aufgelockert bewölkt in der Höhe von 1700 ft

TAF: VDPP 181700Z 1818/1912 23010KT 9999 SCT017

Wetterbeobachtungen und Prognosen von mehr als 4000 Flughäfen (METAR und TAF Bericht).

Die verfügbaren Stationen werden durch gelbe und rote Markierungen auf der Karte dargestellt.

Führen Sie die Maus auf sie, um den Namen der Station zu sehen.

Darauf klicken, um die Beobachtung von Wetterbeobachtungen und Prognosen zu sehen.

Um die Karte zu ändern : klicken Sie auf den grünen Tasten mit einem schwarzen Kreuz Zum Vergrößern, auf den grünen Button mit einem Gedankenstrich zu verkleinern, oder auf die grünen Pfeile für benachbarte Karten.


METAR-TAF: